Time,TemperatureF,DewpointF,PressureIn,WindDirection,WindDirectionDegrees,WindSpeedMPH,WindSpeedGustMPH,Humidity,HourlyPrecipIn,Conditions,Clouds,dailyrainin,SolarRadiationWatts/m^2,SoftwareType,DateUTC
2013-06-13 00:01:00,88.0,47.0,-100.00,SE,146,3.0,9.0,24,0.00,,,0.00,0.000000,,2013-06-13 07:01:00,
2013-06-13 00:11:00,88.0,47.0,-100.00,SE,146,3.0,9.0,24,0.00,,,0.00,0.000000,,2013-06-13 07:11:00,
2013-06-13 00:22:00,88.0,47.0,-100.00,SE,146,3.0,9.0,24,0.00,,,0.00,0.000000,,2013-06-13 07:22:00,
2013-06-13 00:52:00,86.0,48.0,-100.00,SW,220,2.0,9.0,27,0.00,,,0.00,0.000000,,2013-06-13 07:52:00,
2013-06-13 01:01:00,86.0,48.0,-100.00,SW,220,2.0,9.0,27,0.00,,,0.00,0.000000,,2013-06-13 08:01:00,
2013-06-13 01:11:00,86.0,48.0,-100.00,SW,220,2.0,9.0,27,0.00,,,0.00,0.000000,,2013-06-13 08:11:00,
2013-06-13 01:22:00,86.0,48.0,-100.00,SW,220,2.0,9.0,27,0.00,,,0.00,0.000000,,2013-06-13 08:22:00,
2013-06-13 01:52:00,90.0,41.0,-100.00,SW,223,7.0,11.0,18,0.00,,,0.00,0.000000,,2013-06-13 08:52:00,
2013-06-13 02:01:00,90.0,41.0,-100.00,SW,223,7.0,11.0,18,0.00,,,0.00,0.000000,,2013-06-13 09:01:00,
2013-06-13 02:11:00,90.0,41.0,-100.00,SW,223,7.0,11.0,18,0.00,,,0.00,0.000000,,2013-06-13 09:11:00,
2013-06-13 02:22:00,90.0,41.0,-100.00,SW,223,7.0,11.0,18,0.00,,,0.00,0.000000,,2013-06-13 09:22:00,
2013-06-13 02:52:00,88.0,33.0,-100.00,SW,219,8.0,11.0,14,0.00,,,0.00,0.000000,,2013-06-13 09:52:00,
2013-06-13 03:53:00,84.0,41.0,-100.00,SSW,208,9.0,15.0,22,0.00,,,0.00,0.000000,,2013-06-13 10:53:00,
2013-06-13 04:01:00,84.0,41.0,-100.00,SSW,208,9.0,15.0,22,0.00,,,0.00,0.000000,,2013-06-13 11:01:00,
2013-06-13 04:11:00,84.0,41.0,-100.00,SSW,208,9.0,15.0,22,0.00,,,0.00,0.000000,,2013-06-13 11:11:00,
2013-06-13 04:23:00,84.0,41.0,-100.00,SSW,208,9.0,15.0,22,0.00,,,0.00,0.000000,,2013-06-13 11:23:00,
2013-06-13 04:52:00,83.0,49.0,-100.00,SW,224,6.0,13.0,31,0.00,,,0.00,0.000000,,2013-06-13 11:52:00,
2013-06-13 05:01:00,83.0,49.0,-100.00,SW,224,6.0,13.0,31,0.00,,,0.00,0.000000,,2013-06-13 12:01:00,
2013-06-13 05:11:00,83.0,49.0,-100.00,SW,224,6.0,13.0,31,0.00,,,0.00,0.000000,,2013-06-13 12:11:00,
2013-06-13 05:22:00,83.0,49.0,-100.00,SW,224,6.0,13.0,31,0.00,,,0.00,0.000000,,2013-06-13 12:22:00,
2013-06-13 05:52:00,82.0,49.0,-100.00,WSW,258,0.0,8.0,32,0.00,,,0.00,0.000000,,2013-06-13 12:52:00,
2013-06-13 06:01:00,82.0,49.0,-100.00,WSW,258,0.0,8.0,32,0.00,,,0.00,0.000000,,2013-06-13 13:01:00,
2013-06-13 06:11:00,82.0,49.0,-100.00,WSW,258,0.0,8.0,32,0.00,,,0.00,0.000000,,2013-06-13 13:11:00,
2013-06-13 06:21:00,82.0,49.0,-100.00,WSW,258,0.0,8.0,32,0.00,,,0.00,0.000000,,2013-06-13 13:21:00,
2013-06-13 06:53:00,84.0,52.0,-100.00,SSW,195,3.0,7.0,33,0.00,,,0.00,43.000000,,2013-06-13 13:53:00,
2013-06-13 07:02:00,84.0,52.0,-100.00,SSW,195,3.0,7.0,33,0.00,,,0.00,43.000000,,2013-06-13 14:02:00,
2013-06-13 07:11:00,84.0,52.0,-100.00,SSW,195,3.0,7.0,33,0.00,,,0.00,43.000000,,2013-06-13 14:11:00,
2013-06-13 07:22:00,84.0,52.0,-100.00,SSW,195,3.0,7.0,33,0.00,,,0.00,43.000000,,2013-06-13 14:22:00,
2013-06-13 07:53:00,88.0,56.0,-100.00,SW,222,1.0,8.0,34,0.00,,,0.00,221.000000,,2013-06-13 14:53:00,
2013-06-13 08:01:00,88.0,56.0,-100.00,SW,222,1.0,8.0,34,0.00,,,0.00,221.000000,,2013-06-13 15:01:00,
2013-06-13 08:12:00,88.0,56.0,-100.00,SW,222,1.0,8.0,34,0.00,,,0.00,221.000000,,2013-06-13 15:12:00,
2013-06-13 08:21:00,88.0,56.0,-100.00,SW,222,1.0,8.0,34,0.00,,,0.00,221.000000,,2013-06-13 15:21:00,
2013-06-13 08:53:00,90.0,53.0,-100.00,South,171,4.0,7.0,29,0.00,,,0.00,444.000000,,2013-06-13 15:53:00,
2013-06-13 09:01:00,90.0,53.0,-100.00,South,171,4.0,7.0,29,0.00,,,0.00,444.000000,,2013-06-13 16:01:00,
2013-06-13 09:11:00,90.0,53.0,-100.00,South,171,4.0,7.0,29,0.00,,,0.00,444.000000,,2013-06-13 16:11:00,
2013-06-13 09:22:00,90.0,53.0,-100.00,South,171,4.0,7.0,29,0.00,,,0.00,444.000000,,2013-06-13 16:22:00,
2013-06-13 09:53:00,94.0,48.0,-100.00,South,173,4.0,8.0,21,0.00,,,0.00,736.000000,,2013-06-13 16:53:00,
2013-06-13 10:02:00,94.0,48.0,-100.00,South,173,4.0,8.0,21,0.00,,,0.00,736.000000,,2013-06-13 17:02:00,
2013-06-13 10:11:00,94.0,48.0,-100.00,South,173,4.0,8.0,21,0.00,,,0.00,736.000000,,2013-06-13 17:11:00,
2013-06-13 10:24:00,94.0,48.0,-100.00,South,173,4.0,8.0,21,0.00,,,0.00,736.000000,,2013-06-13 17:24:00,
2013-06-13 10:53:00,98.0,39.0,-100.00,SW,233,2.0,8.0,13,0.00,,,0.00,953.000000,,2013-06-13 17:53:00,
2013-06-13 11:02:00,98.0,39.0,-100.00,SW,233,2.0,8.0,13,0.00,,,0.00,953.000000,,2013-06-13 18:02:00,
2013-06-13 11:11:00,98.0,39.0,-100.00,SW,233,2.0,8.0,13,0.00,,,0.00,953.000000,,2013-06-13 18:11:00,
2013-06-13 11:22:00,98.0,39.0,-100.00,SW,233,2.0,8.0,13,0.00,,,0.00,953.000000,,2013-06-13 18:22:00,
2013-06-13 11:52:00,100.0,40.0,-100.00,SSE,160,6.0,10.0,13,0.00,,,0.00,1106.000000,,2013-06-13 18:52:00,
2013-06-13 12:01:00,100.0,40.0,-100.00,SSE,160,6.0,10.0,13,0.00,,,0.00,1106.000000,,2013-06-13 19:01:00,
2013-06-13 12:11:00,100.0,40.0,-100.00,SSE,160,6.0,10.0,13,0.00,,,0.00,1106.000000,,2013-06-13 19:11:00,
2013-06-13 12:22:00,100.0,40.0,-100.00,SSE,160,6.0,10.0,13,0.00,,,0.00,1106.000000,,2013-06-13 19:22:00,
2013-06-13 12:53:00,102.0,38.0,-100.00,SW,225,6.0,13.0,11,0.00,,,0.00,1193.000000,,2013-06-13 19:53:00,
2013-06-13 13:01:00,102.0,38.0,-100.00,SW,225,6.0,13.0,11,0.00,,,0.00,1193.000000,,2013-06-13 20:01:00,
2013-06-13 13:11:00,102.0,38.0,-100.00,SW,225,6.0,13.0,11,0.00,,,0.00,1193.000000,,2013-06-13 20:11:00,
2013-06-13 13:22:00,102.0,38.0,-100.00,SW,225,6.0,13.0,11,0.00,,,0.00,1193.000000,,2013-06-13 20:22:00,
2013-06-13 13:53:00,104.0,37.0,-100.00,South,178,7.0,12.0,10,0.00,,,0.00,1170.000000,,2013-06-13 20:53:00,
2013-06-13 14:01:00,104.0,37.0,-100.00,South,178,7.0,12.0,10,0.00,,,0.00,1170.000000,,2013-06-13 21:01:00,
2013-06-13 14:11:00,104.0,37.0,-100.00,South,178,7.0,12.0,10,0.00,,,0.00,1170.000000,,2013-06-13 21:11:00,
2013-06-13 14:22:00,104.0,37.0,-100.00,South,178,7.0,12.0,10,0.00,,,0.00,1170.000000,,2013-06-13 21:22:00,
2013-06-13 14:52:00,103.0,43.0,-100.00,SSW,196,8.0,13.0,13,0.00,,,0.00,1103.000000,,2013-06-13 21:52:00,
2013-06-13 15:01:00,103.0,43.0,-100.00,SSW,196,8.0,13.0,13,0.00,,,0.00,1103.000000,,2013-06-13 22:01:00,
2013-06-13 15:11:00,103.0,43.0,-100.00,SSW,196,8.0,13.0,13,0.00,,,0.00,1103.000000,,2013-06-13 22:11:00,
2013-06-13 15:22:00,103.0,43.0,-100.00,SSW,196,8.0,13.0,13,0.00,,,0.00,1103.000000,,2013-06-13 22:22:00,
2013-06-13 15:52:00,106.0,45.0,-100.00,SSW,193,6.0,14.0,13,0.00,,,0.00,1027.000000,,2013-06-13 22:52:00,
2013-06-13 16:01:00,106.0,45.0,-100.00,SSW,193,6.0,14.0,13,0.00,,,0.00,1027.000000,,2013-06-13 23:01:00,
2013-06-13 16:11:00,106.0,45.0,-100.00,SSW,193,6.0,14.0,13,0.00,,,0.00,1027.000000,,2013-06-13 23:11:00,
2013-06-13 16:22:00,106.0,45.0,-100.00,SSW,193,6.0,14.0,13,0.00,,,0.00,1027.000000,,2013-06-13 23:22:00,
2013-06-13 16:52:00,104.0,43.0,-100.00,SSW,195,7.0,17.0,13,0.00,,,0.00,838.000000,,2013-06-13 23:52:00,
2013-06-13 17:01:00,104.0,43.0,-100.00,SSW,195,7.0,17.0,13,0.00,,,0.00,838.000000,,2013-06-14 00:01:00,
2013-06-13 17:11:00,104.0,43.0,-100.00,SSW,195,7.0,17.0,13,0.00,,,0.00,838.000000,,2013-06-14 00:11:00,
2013-06-13 17:22:00,104.0,43.0,-100.00,SSW,195,7.0,17.0,13,0.00,,,0.00,838.000000,,2013-06-14 00:22:00,
2013-06-13 17:53:00,105.0,42.0,-100.00,SSW,196,8.0,16.0,12,0.00,,,0.00,492.000000,,2013-06-14 00:53:00,
2013-06-13 18:01:00,105.0,42.0,-100.00,SSW,196,8.0,16.0,12,0.00,,,0.00,492.000000,,2013-06-14 01:01:00,
2013-06-13 18:11:00,105.0,42.0,-100.00,SSW,196,8.0,16.0,12,0.00,,,0.00,492.000000,,2013-06-14 01:11:00,
2013-06-13 18:22:00,105.0,42.0,-100.00,SSW,196,8.0,16.0,12,0.00,,,0.00,492.000000,,2013-06-14 01:22:00,
2013-06-13 18:52:00,102.0,42.0,-100.00,SSW,199,8.0,15.0,13,0.00,,,0.00,231.000000,,2013-06-14 01:52:00,
2013-06-13 19:02:00,102.0,42.0,-100.00,SSW,199,8.0,15.0,13,0.00,,,0.00,231.000000,,2013-06-14 02:02:00,
2013-06-13 19:11:00,102.0,42.0,-100.00,SSW,199,8.0,15.0,13,0.00,,,0.00,231.000000,,2013-06-14 02:11:00,
2013-06-13 19:22:00,102.0,42.0,-100.00,SSW,199,8.0,15.0,13,0.00,,,0.00,231.000000,,2013-06-14 02:22:00,
2013-06-13 19:52:00,101.0,41.0,-100.00,SSW,199,7.0,16.0,13,0.00,,,0.00,121.000000,,2013-06-14 02:52:00,
2013-06-13 20:02:00,101.0,41.0,-100.00,SSW,199,7.0,16.0,13,0.00,,,0.00,121.000000,,2013-06-14 03:02:00,
2013-06-13 20:11:00,101.0,41.0,-100.00,SSW,199,7.0,16.0,13,0.00,,,0.00,121.000000,,2013-06-14 03:11:00,
2013-06-13 20:22:00,101.0,41.0,-100.00,SSW,199,7.0,16.0,13,0.00,,,0.00,121.000000,,2013-06-14 03:22:00,
2013-06-13 20:53:00,96.0,44.0,-100.00,SSW,208,8.0,14.0,17,0.00,,,0.00,7.000000,,2013-06-14 03:53:00,
2013-06-13 21:01:00,96.0,44.0,-100.00,SSW,208,8.0,14.0,17,0.00,,,0.00,7.000000,,2013-06-14 04:01:00,
2013-06-13 21:12:00,96.0,44.0,-100.00,SSW,208,8.0,14.0,17,0.00,,,0.00,7.000000,,2013-06-14 04:12:00,
2013-06-13 21:22:00,96.0,44.0,-100.00,SSW,208,8.0,14.0,17,0.00,,,0.00,7.000000,,2013-06-14 04:22:00,
2013-06-13 21:53:00,90.0,43.0,-100.00,SE,144,0.0,14.0,20,0.00,,,0.00,0.000000,,2013-06-14 04:53:00,
2013-06-13 22:02:00,90.0,43.0,-100.00,SE,144,0.0,14.0,20,0.00,,,0.00,0.000000,,2013-06-14 05:02:00,
2013-06-13 22:11:00,90.0,43.0,-100.00,SE,144,0.0,14.0,20,0.00,,,0.00,0.000000,,2013-06-14 05:11:00,
2013-06-13 22:22:00,90.0,43.0,-100.00,SE,144,0.0,14.0,20,0.00,,,0.00,0.000000,,2013-06-14 05:22:00,
2013-06-13 22:52:00,90.0,43.0,-100.00,SW,217,9.0,17.0,20,0.00,,,0.00,0.000000,,2013-06-14 05:52:00,
2013-06-13 23:02:00,90.0,43.0,-100.00,SW,217,9.0,17.0,20,0.00,,,0.00,0.000000,,2013-06-14 06:02:00,
2013-06-13 23:12:00,90.0,43.0,-100.00,SW,217,9.0,17.0,20,0.00,,,0.00,0.000000,,2013-06-14 06:12:00,
2013-06-13 23:22:00,90.0,43.0,-100.00,SW,217,9.0,17.0,20,0.00,,,0.00,0.000000,,2013-06-14 06:22:00,
2013-06-13 23:52:00,88.0,43.0,-100.00,SW,225,8.0,15.0,21,0.00,,,0.00,0.000000,,2013-06-14 06:52:00,